sensor_id;sensor_type;location;lat;lon;timestamp;temperature;humidity
24338;DHT22;12457;50.832;4.346;2024-02-15T00:00:13;13.20;99.90
24338;DHT22;12457;50.832;4.346;2024-02-15T00:02:40;13.20;99.90
24338;DHT22;12457;50.832;4.346;2024-02-15T00:05:06;13.30;99.90
24338;DHT22;12457;50.832;4.346;2024-02-15T00:07:33;13.30;99.90
24338;DHT22;12457;50.832;4.346;2024-02-15T00:10:00;13.30;99.90
24338;DHT22;12457;50.832;4.346;2024-02-15T00:12:26;13.30;99.90
24338;DHT22;12457;50.832;4.346;2024-02-15T00:14:52;13.30;99.90
24338;DHT22;12457;50.832;4.346;2024-02-15T00:17:18;13.30;99.90
24338;DHT22;12457;50.832;4.346;2024-02-15T00:19:43;13.20;99.90
24338;DHT22;12457;50.832;4.346;2024-02-15T00:22:09;13.30;99.90
24338;DHT22;12457;50.832;4.346;2024-02-15T00:24:37;13.20;99.90
24338;DHT22;12457;50.832;4.346;2024-02-15T00:27:03;13.30;99.90
24338;DHT22;12457;50.832;4.346;2024-02-15T00:29:29;13.20;99.90
24338;DHT22;12457;50.832;4.346;2024-02-15T00:31:57;13.30;99.90
24338;DHT22;12457;50.832;4.346;2024-02-15T00:34:23;13.20;99.90
24338;DHT22;12457;50.832;4.346;2024-02-15T00:36:51;13.20;99.90
24338;DHT22;12457;50.832;4.346;2024-02-15T00:39:17;13.20;99.90
24338;DHT22;12457;50.832;4.346;2024-02-15T00:41:52;13.20;99.90
24338;DHT22;12457;50.832;4.346;2024-02-15T00:44:18;13.20;99.90
24338;DHT22;12457;50.832;4.346;2024-02-15T00:46:43;13.20;99.90
24338;DHT22;12457;50.832;4.346;2024-02-15T00:49:09;13.20;99.90
24338;DHT22;12457;50.832;4.346;2024-02-15T00:51:36;13.30;99.90
24338;DHT22;12457;50.832;4.346;2024-02-15T00:54:02;13.30;99.90
24338;DHT22;12457;50.832;4.346;2024-02-15T00:56:28;13.20;99.90
24338;DHT22;12457;50.832;4.346;2024-02-15T00:58:56;13.10;99.90
24338;DHT22;12457;50.832;4.346;2024-02-15T01:01:23;13.10;99.90
24338;DHT22;12457;50.832;4.346;2024-02-15T01:03:48;13.10;99.90
24338;DHT22;12457;50.832;4.346;2024-02-15T01:06:14;13.10;99.90
24338;DHT22;12457;50.832;4.346;2024-02-15T01:08:40;13.10;99.90
24338;DHT22;12457;50.832;4.346;2024-02-15T01:11:24;13.10;99.90
24338;DHT22;12457;50.832;4.346;2024-02-15T01:13:51;13.10;99.90
24338;DHT22;12457;50.832;4.346;2024-02-15T01:16:18;13.20;99.90
24338;DHT22;12457;50.832;4.346;2024-02-15T01:18:44;13.20;99.90
24338;DHT22;12457;50.832;4.346;2024-02-15T01:21:09;13.20;99.90
24338;DHT22;12457;50.832;4.346;2024-02-15T01:23:36;13.20;99.90
24338;DHT22;12457;50.832;4.346;2024-02-15T01:26:05;13.20;99.90
24338;DHT22;12457;50.832;4.346;2024-02-15T01:28:31;13.20;99.90
24338;DHT22;12457;50.832;4.346;2024-02-15T01:30:56;13.20;99.90
24338;DHT22;12457;50.832;4.346;2024-02-15T01:33:22;13.20;99.90
24338;DHT22;12457;50.832;4.346;2024-02-15T01:35:48;13.20;99.90
24338;DHT22;12457;50.832;4.346;2024-02-15T01:38:14;13.10;99.90
24338;DHT22;12457;50.832;4.346;2024-02-15T01:40:49;13.00;99.90
24338;DHT22;12457;50.832;4.346;2024-02-15T01:43:14;13.00;99.90
24338;DHT22;12457;50.832;4.346;2024-02-15T01:45:41;13.00;99.90
24338;DHT22;12457;50.832;4.346;2024-02-15T01:48:07;12.90;99.90
24338;DHT22;12457;50.832;4.346;2024-02-15T01:50:33;12.80;99.90
24338;DHT22;12457;50.832;4.346;2024-02-15T01:53:01;12.80;99.90
24338;DHT22;12457;50.832;4.346;2024-02-15T01:55:29;12.80;99.90
24338;DHT22;12457;50.832;4.346;2024-02-15T01:57:55;12.90;99.90
24338;DHT22;12457;50.832;4.346;2024-02-15T02:00:21;12.90;99.90
24338;DHT22;12457;50.832;4.346;2024-02-15T02:02:48;12.90;99.90
24338;DHT22;12457;50.832;4.346;2024-02-15T02:05:14;12.90;99.90
24338;DHT22;12457;50.832;4.346;2024-02-15T02:07:39;12.90;99.90
24338;DHT22;12457;50.832;4.346;2024-02-15T02:10:07;12.90;99.90
24338;DHT22;12457;50.832;4.346;2024-02-15T02:12:34;12.90;99.90
24338;DHT22;12457;50.832;4.346;2024-02-15T02:15:00;12.90;99.90
24338;DHT22;12457;50.832;4.346;2024-02-15T02:17:25;12.80;99.90
24338;DHT22;12457;50.832;4.346;2024-02-15T02:19:51;12.90;99.90
24338;DHT22;12457;50.832;4.346;2024-02-15T02:22:17;12.80;99.90
24338;DHT22;12457;50.832;4.346;2024-02-15T02:27:23;12.80;99.90
24338;DHT22;12457;50.832;4.346;2024-02-15T02:29:50;12.80;99.90
24338;DHT22;12457;50.832;4.346;2024-02-15T02:32:16;12.80;99.90
24338;DHT22;12457;50.832;4.346;2024-02-15T02:34:43;12.90;99.90
24338;DHT22;12457;50.832;4.346;2024-02-15T02:37:10;12.90;99.90
24338;DHT22;12457;50.832;4.346;2024-02-15T02:39:35;12.80;99.90
24338;DHT22;12457;50.832;4.346;2024-02-15T02:42:01;12.80;99.90
24338;DHT22;12457;50.832;4.346;2024-02-15T02:44:27;12.80;99.90
24338;DHT22;12457;50.832;4.346;2024-02-15T02:46:53;12.80;99.90
24338;DHT22;12457;50.832;4.346;2024-02-15T02:49:18;12.90;99.90
24338;DHT22;12457;50.832;4.346;2024-02-15T02:51:44;12.80;99.90
24338;DHT22;12457;50.832;4.346;2024-02-15T02:54:10;12.90;99.90
24338;DHT22;12457;50.832;4.346;2024-02-15T02:56:51;12.80;99.90
24338;DHT22;12457;50.832;4.346;2024-02-15T02:59:17;12.90;99.90
24338;DHT22;12457;50.832;4.346;2024-02-15T03:01:43;12.90;99.90
24338;DHT22;12457;50.832;4.346;2024-02-15T03:04:08;12.80;99.90
24338;DHT22;12457;50.832;4.346;2024-02-15T03:06:34;12.80;99.90
24338;DHT22;12457;50.832;4.346;2024-02-15T03:09:00;12.90;99.90
24338;DHT22;12457;50.832;4.346;2024-02-15T03:11:26;12.90;99.90
24338;DHT22;12457;50.832;4.346;2024-02-15T03:13:52;12.90;99.90
24338;DHT22;12457;50.832;4.346;2024-02-15T03:16:22;12.90;99.90
24338;DHT22;12457;50.832;4.346;2024-02-15T03:18:47;12.90;99.90
24338;DHT22;12457;50.832;4.346;2024-02-15T03:21:14;12.90;99.90
24338;DHT22;12457;50.832;4.346;2024-02-15T03:23:40;12.80;99.90
24338;DHT22;12457;50.832;4.346;2024-02-15T03:26:08;12.90;99.90
24338;DHT22;12457;50.832;4.346;2024-02-15T03:28:35;12.80;99.90
24338;DHT22;12457;50.832;4.346;2024-02-15T03:31:02;12.80;99.90
24338;DHT22;12457;50.832;4.346;2024-02-15T03:33:28;12.90;99.90
24338;DHT22;12457;50.832;4.346;2024-02-15T03:35:59;12.90;99.90
24338;DHT22;12457;50.832;4.346;2024-02-15T03:38:28;12.90;99.90
24338;DHT22;12457;50.832;4.346;2024-02-15T03:40:55;12.90;99.90
24338;DHT22;12457;50.832;4.346;2024-02-15T03:43:21;12.80;99.90
24338;DHT22;12457;50.832;4.346;2024-02-15T03:45:49;12.80;99.90
24338;DHT22;12457;50.832;4.346;2024-02-15T03:48:15;12.80;99.90
24338;DHT22;12457;50.832;4.346;2024-02-15T03:50:41;12.90;99.90
24338;DHT22;12457;50.832;4.346;2024-02-15T03:53:09;12.90;99.90
24338;DHT22;12457;50.832;4.346;2024-02-15T03:55:36;12.90;99.90
24338;DHT22;12457;50.832;4.346;2024-02-15T03:58:02;12.90;99.90
24338;DHT22;12457;50.832;4.346;2024-02-15T04:00:28;12.90;99.90
24338;DHT22;12457;50.832;4.346;2024-02-15T04:02:53;12.90;99.90
24338;DHT22;12457;50.832;4.346;2024-02-15T04:05:20;12.90;99.90
24338;DHT22;12457;50.832;4.346;2024-02-15T04:07:47;12.90;99.90
24338;DHT22;12457;50.832;4.346;2024-02-15T04:10:13;12.80;99.90
24338;DHT22;12457;50.832;4.346;2024-02-15T04:12:45;12.80;99.90
24338;DHT22;12457;50.832;4.346;2024-02-15T04:15:10;12.80;99.90
24338;DHT22;12457;50.832;4.346;2024-02-15T04:17:43;12.70;99.90
24338;DHT22;12457;50.832;4.346;2024-02-15T04:20:10;12.70;99.90
24338;DHT22;12457;50.832;4.346;2024-02-15T04:22:37;12.70;99.90
24338;DHT22;12457;50.832;4.346;2024-02-15T04:25:07;12.70;99.90
24338;DHT22;12457;50.832;4.346;2024-02-15T04:27:35;12.70;99.90
24338;DHT22;12457;50.832;4.346;2024-02-15T04:30:04;12.70;99.90
24338;DHT22;12457;50.832;4.346;2024-02-15T04:32:30;12.70;99.90
24338;DHT22;12457;50.832;4.346;2024-02-15T04:34:59;12.70;99.90
24338;DHT22;12457;50.832;4.346;2024-02-15T04:37:25;12.70;99.90
24338;DHT22;12457;50.832;4.346;2024-02-15T04:39:52;12.70;99.90
24338;DHT22;12457;50.832;4.346;2024-02-15T04:42:18;12.80;99.90
24338;DHT22;12457;50.832;4.346;2024-02-15T04:44:44;12.80;99.90
24338;DHT22;12457;50.832;4.346;2024-02-15T04:47:09;12.80;99.90
24338;DHT22;12457;50.832;4.346;2024-02-15T04:49:35;12.80;99.90
24338;DHT22;12457;50.832;4.346;2024-02-15T04:52:04;12.70;99.90
24338;DHT22;12457;50.832;4.346;2024-02-15T04:54:30;12.70;99.90
24338;DHT22;12457;50.832;4.346;2024-02-15T04:56:59;12.70;99.90
24338;DHT22;12457;50.832;4.346;2024-02-15T04:59:26;12.70;99.90
24338;DHT22;12457;50.832;4.346;2024-02-15T05:01:54;12.70;99.90
24338;DHT22;12457;50.832;4.346;2024-02-15T05:04:21;12.80;99.90
24338;DHT22;12457;50.832;4.346;2024-02-15T05:06:51;12.80;99.90
24338;DHT22;12457;50.832;4.346;2024-02-15T05:09:16;12.70;99.90
24338;DHT22;12457;50.832;4.346;2024-02-15T05:11:44;12.70;99.90
24338;DHT22;12457;50.832;4.346;2024-02-15T05:14:14;12.70;99.90
24338;DHT22;12457;50.832;4.346;2024-02-15T05:16:45;12.70;99.90
24338;DHT22;12457;50.832;4.346;2024-02-15T05:19:14;12.80;99.90
24338;DHT22;12457;50.832;4.346;2024-02-15T05:21:39;12.80;99.90
24338;DHT22;12457;50.832;4.346;2024-02-15T05:24:06;12.80;99.90
24338;DHT22;12457;50.832;4.346;2024-02-15T05:26:32;12.80;99.90
24338;DHT22;12457;50.832;4.346;2024-02-15T05:28:58;12.70;99.90
24338;DHT22;12457;50.832;4.346;2024-02-15T05:31:24;12.80;99.90
24338;DHT22;12457;50.832;4.346;2024-02-15T05:33:53;12.80;99.90
24338;DHT22;12457;50.832;4.346;2024-02-15T05:36:20;12.80;99.90
24338;DHT22;12457;50.832;4.346;2024-02-15T05:38:49;12.70;99.90
24338;DHT22;12457;50.832;4.346;2024-02-15T05:41:15;12.70;99.90
24338;DHT22;12457;50.832;4.346;2024-02-15T05:43:42;12.70;99.90
24338;DHT22;12457;50.832;4.346;2024-02-15T05:46:09;12.70;99.90
24338;DHT22;12457;50.832;4.346;2024-02-15T05:48:38;12.80;99.90
24338;DHT22;12457;50.832;4.346;2024-02-15T05:51:05;12.80;99.90
24338;DHT22;12457;50.832;4.346;2024-02-15T05:53:32;12.80;99.90
24338;DHT22;12457;50.832;4.346;2024-02-15T05:56:10;12.80;99.90
24338;DHT22;12457;50.832;4.346;2024-02-15T05:58:37;12.70;99.90
24338;DHT22;12457;50.832;4.346;2024-02-15T06:01:03;12.70;99.90
24338;DHT22;12457;50.832;4.346;2024-02-15T06:03:33;12.70;99.90
24338;DHT22;12457;50.832;4.346;2024-02-15T06:06:02;12.80;99.90
24338;DHT22;12457;50.832;4.346;2024-02-15T06:08:36;12.80;99.90
24338;DHT22;12457;50.832;4.346;2024-02-15T06:11:02;12.80;99.90
24338;DHT22;12457;50.832;4.346;2024-02-15T06:13:38;12.80;99.90
24338;DHT22;12457;50.832;4.346;2024-02-15T06:16:03;12.90;99.90
24338;DHT22;12457;50.832;4.346;2024-02-15T06:18:34;12.90;99.90
24338;DHT22;12457;50.832;4.346;2024-02-15T06:21:00;12.90;99.90
24338;DHT22;12457;50.832;4.346;2024-02-15T06:23:27;13.00;99.90
24338;DHT22;12457;50.832;4.346;2024-02-15T06:25:55;12.90;99.90
24338;DHT22;12457;50.832;4.346;2024-02-15T06:28:23;12.90;99.90
24338;DHT22;12457;50.832;4.346;2024-02-15T06:31:09;12.90;99.90
24338;DHT22;12457;50.832;4.346;2024-02-15T06:33:54;12.90;99.90
24338;DHT22;12457;50.832;4.346;2024-02-15T06:36:49;12.90;99.90
24338;DHT22;12457;50.832;4.346;2024-02-15T06:39:34;12.80;99.90
24338;DHT22;12457;50.832;4.346;2024-02-15T06:42:14;12.90;99.90
24338;DHT22;12457;50.832;4.346;2024-02-15T06:44:46;12.90;99.90
24338;DHT22;12457;50.832;4.346;2024-02-15T06:47:13;12.80;99.90
24338;DHT22;12457;50.832;4.346;2024-02-15T06:49:39;12.70;99.90
24338;DHT22;12457;50.832;4.346;2024-02-15T06:52:08;12.70;99.90
24338;DHT22;12457;50.832;4.346;2024-02-15T06:54:35;12.70;99.90
24338;DHT22;12457;50.832;4.346;2024-02-15T06:57:02;12.70;99.90
24338;DHT22;12457;50.832;4.346;2024-02-15T06:59:47;12.70;99.90
24338;DHT22;12457;50.832;4.346;2024-02-15T07:02:12;12.80;99.90
24338;DHT22;12457;50.832;4.346;2024-02-15T07:04:38;12.80;99.90
24338;DHT22;12457;50.832;4.346;2024-02-15T07:07:04;12.70;99.90
24338;DHT22;12457;50.832;4.346;2024-02-15T07:09:29;12.80;99.90
24338;DHT22;12457;50.832;4.346;2024-02-15T07:11:56;12.80;99.90
24338;DHT22;12457;50.832;4.346;2024-02-15T07:14:41;12.90;99.90
24338;DHT22;12457;50.832;4.346;2024-02-15T07:17:07;13.00;99.90
24338;DHT22;12457;50.832;4.346;2024-02-15T07:19:33;12.90;99.90
24338;DHT22;12457;50.832;4.346;2024-02-15T07:22:02;12.90;99.90
24338;DHT22;12457;50.832;4.346;2024-02-15T07:24:28;13.00;99.90
24338;DHT22;12457;50.832;4.346;2024-02-15T07:26:54;13.00;99.90
24338;DHT22;12457;50.832;4.346;2024-02-15T07:29:24;13.10;99.90
24338;DHT22;12457;50.832;4.346;2024-02-15T07:31:51;13.10;99.90
24338;DHT22;12457;50.832;4.346;2024-02-15T07:34:16;13.10;99.90
24338;DHT22;12457;50.832;4.346;2024-02-15T07:36:42;13.10;99.90
24338;DHT22;12457;50.832;4.346;2024-02-15T07:39:08;13.20;99.90
24338;DHT22;12457;50.832;4.346;2024-02-15T07:41:38;13.20;99.90
24338;DHT22;12457;50.832;4.346;2024-02-15T07:44:04;13.30;99.90
24338;DHT22;12457;50.832;4.346;2024-02-15T07:46:30;13.40;99.90
24338;DHT22;12457;50.832;4.346;2024-02-15T07:48:55;13.40;99.90
24338;DHT22;12457;50.832;4.346;2024-02-15T07:51:22;13.50;99.90
24338;DHT22;12457;50.832;4.346;2024-02-15T07:53:49;13.50;99.90
24338;DHT22;12457;50.832;4.346;2024-02-15T07:56:17;13.50;99.90
24338;DHT22;12457;50.832;4.346;2024-02-15T07:58:49;13.60;99.90
24338;DHT22;12457;50.832;4.346;2024-02-15T08:01:17;13.60;99.90
24338;DHT22;12457;50.832;4.346;2024-02-15T08:03:46;13.60;99.90
24338;DHT22;12457;50.832;4.346;2024-02-15T08:06:12;13.70;99.90
24338;DHT22;12457;50.832;4.346;2024-02-15T08:08:42;13.70;99.90
24338;DHT22;12457;50.832;4.346;2024-02-15T08:11:12;13.70;99.90
24338;DHT22;12457;50.832;4.346;2024-02-15T08:13:51;13.80;99.90
24338;DHT22;12457;50.832;4.346;2024-02-15T08:16:21;13.90;99.90
24338;DHT22;12457;50.832;4.346;2024-02-15T08:18:50;13.90;99.90
24338;DHT22;12457;50.832;4.346;2024-02-15T08:21:28;14.00;99.90
24338;DHT22;12457;50.832;4.346;2024-02-15T08:23:55;14.00;99.90
24338;DHT22;12457;50.832;4.346;2024-02-15T08:26:24;14.10;99.90
24338;DHT22;12457;50.832;4.346;2024-02-15T08:28:50;14.10;99.90
24338;DHT22;12457;50.832;4.346;2024-02-15T08:31:16;14.20;99.90
24338;DHT22;12457;50.832;4.346;2024-02-15T08:33:42;14.30;99.90
24338;DHT22;12457;50.832;4.346;2024-02-15T08:36:10;14.30;99.90
24338;DHT22;12457;50.832;4.346;2024-02-15T08:38:37;14.40;99.90
24338;DHT22;12457;50.832;4.346;2024-02-15T08:41:03;14.50;99.90
24338;DHT22;12457;50.832;4.346;2024-02-15T08:43:36;14.50;99.90
24338;DHT22;12457;50.832;4.346;2024-02-15T08:46:05;14.50;99.90
24338;DHT22;12457;50.832;4.346;2024-02-15T08:48:31;14.60;99.90
24338;DHT22;12457;50.832;4.346;2024-02-15T08:50:58;14.70;99.90
24338;DHT22;12457;50.832;4.346;2024-02-15T08:53:24;14.80;99.90
24338;DHT22;12457;50.832;4.346;2024-02-15T08:55:50;15.00;99.90
24338;DHT22;12457;50.832;4.346;2024-02-15T08:58:18;15.00;99.90
24338;DHT22;12457;50.832;4.346;2024-02-15T09:00:45;15.20;99.90
24338;DHT22;12457;50.832;4.346;2024-02-15T09:03:11;15.30;99.90
24338;DHT22;12457;50.832;4.346;2024-02-15T09:05:38;15.40;99.90
24338;DHT22;12457;50.832;4.346;2024-02-15T09:08:04;15.40;99.90
24338;DHT22;12457;50.832;4.346;2024-02-15T09:10:30;15.40;99.90
24338;DHT22;12457;50.832;4.346;2024-02-15T09:12:56;15.40;99.90
24338;DHT22;12457;50.832;4.346;2024-02-15T09:15:22;15.40;99.90
24338;DHT22;12457;50.832;4.346;2024-02-15T09:17:48;15.60;99.90
24338;DHT22;12457;50.832;4.346;2024-02-15T09:20:15;15.50;99.90
24338;DHT22;12457;50.832;4.346;2024-02-15T09:22:50;15.60;99.90
24338;DHT22;12457;50.832;4.346;2024-02-15T09:25:18;15.60;99.90
24338;DHT22;12457;50.832;4.346;2024-02-15T09:27:44;15.60;99.90
24338;DHT22;12457;50.832;4.346;2024-02-15T09:30:11;15.70;99.90
24338;DHT22;12457;50.832;4.346;2024-02-15T09:32:38;15.70;99.90
24338;DHT22;12457;50.832;4.346;2024-02-15T09:35:04;15.80;99.90
24338;DHT22;12457;50.832;4.346;2024-02-15T09:37:36;16.00;99.90
24338;DHT22;12457;50.832;4.346;2024-02-15T09:40:12;16.10;99.90
24338;DHT22;12457;50.832;4.346;2024-02-15T09:42:39;16.30;99.90
24338;DHT22;12457;50.832;4.346;2024-02-15T09:45:08;16.30;99.90
24338;DHT22;12457;50.832;4.346;2024-02-15T09:47:42;16.40;99.90
24338;DHT22;12457;50.832;4.346;2024-02-15T09:50:11;16.50;99.90
24338;DHT22;12457;50.832;4.346;2024-02-15T09:52:40;16.60;99.90
24338;DHT22;12457;50.832;4.346;2024-02-15T09:55:07;16.70;99.90
24338;DHT22;12457;50.832;4.346;2024-02-15T09:57:42;16.80;99.90
24338;DHT22;12457;50.832;4.346;2024-02-15T10:00:10;16.80;99.90
24338;DHT22;12457;50.832;4.346;2024-02-15T10:02:43;16.70;99.90
24338;DHT22;12457;50.832;4.346;2024-02-15T10:05:12;16.70;99.90
24338;DHT22;12457;50.832;4.346;2024-02-15T10:07:42;16.80;99.90
24338;DHT22;12457;50.832;4.346;2024-02-15T10:10:21;16.70;99.90
24338;DHT22;12457;50.832;4.346;2024-02-15T10:12:48;16.70;99.90
24338;DHT22;12457;50.832;4.346;2024-02-15T10:15:39;16.70;99.90
24338;DHT22;12457;50.832;4.346;2024-02-15T10:18:07;16.70;99.90
24338;DHT22;12457;50.832;4.346;2024-02-15T10:20:34;16.80;99.90
24338;DHT22;12457;50.832;4.346;2024-02-15T10:23:08;16.90;99.90
24338;DHT22;12457;50.832;4.346;2024-02-15T10:25:35;16.80;99.90
24338;DHT22;12457;50.832;4.346;2024-02-15T10:28:07;16.80;99.90
24338;DHT22;12457;50.832;4.346;2024-02-15T10:30:51;16.80;99.90
24338;DHT22;12457;50.832;4.346;2024-02-15T10:33:28;16.90;99.90
24338;DHT22;12457;50.832;4.346;2024-02-15T10:38:37;17.20;99.90
24338;DHT22;12457;50.832;4.346;2024-02-15T10:41:06;17.40;99.90
24338;DHT22;12457;50.832;4.346;2024-02-15T10:43:35;17.50;99.90
24338;DHT22;12457;50.832;4.346;2024-02-15T10:46:04;17.60;99.90
24338;DHT22;12457;50.832;4.346;2024-02-15T10:48:30;17.60;99.90
24338;DHT22;12457;50.832;4.346;2024-02-15T10:50:56;17.60;99.90
24338;DHT22;12457;50.832;4.346;2024-02-15T10:53:27;17.70;99.90
24338;DHT22;12457;50.832;4.346;2024-02-15T10:58:50;17.90;99.90
24338;DHT22;12457;50.832;4.346;2024-02-15T11:01:21;17.90;99.90
24338;DHT22;12457;50.832;4.346;2024-02-15T11:04:02;17.80;99.90
24338;DHT22;12457;50.832;4.346;2024-02-15T11:06:35;17.80;99.90
24338;DHT22;12457;50.832;4.346;2024-02-15T11:09:01;17.70;99.90
24338;DHT22;12457;50.832;4.346;2024-02-15T11:11:29;17.70;99.90
24338;DHT22;12457;50.832;4.346;2024-02-15T11:14:25;17.70;99.90
24338;DHT22;12457;50.832;4.346;2024-02-15T11:16:54;17.70;99.90
24338;DHT22;12457;50.832;4.346;2024-02-15T11:19:40;17.70;99.90
24338;DHT22;12457;50.832;4.346;2024-02-15T11:22:12;17.90;99.90
24338;DHT22;12457;50.832;4.346;2024-02-15T11:24:51;17.90;99.90
24338;DHT22;12457;50.832;4.346;2024-02-15T11:27:28;18.00;99.90
24338;DHT22;12457;50.832;4.346;2024-02-15T11:29:55;17.90;99.90
24338;DHT22;12457;50.832;4.346;2024-02-15T11:32:41;17.90;99.90
24338;DHT22;12457;50.832;4.346;2024-02-15T11:35:15;17.80;99.90
24338;DHT22;12457;50.832;4.346;2024-02-15T11:37:55;17.80;99.90
24338;DHT22;12457;50.832;4.346;2024-02-15T11:40:29;17.60;99.90
24338;DHT22;12457;50.832;4.346;2024-02-15T11:46:17;17.70;99.90
24338;DHT22;12457;50.832;4.346;2024-02-15T11:48:45;17.70;99.90
24338;DHT22;12457;50.832;4.346;2024-02-15T11:51:33;17.70;99.90
24338;DHT22;12457;50.832;4.346;2024-02-15T11:54:07;17.80;99.90
24338;DHT22;12457;50.832;4.346;2024-02-15T11:59:20;17.70;99.90
24338;DHT22;12457;50.832;4.346;2024-02-15T12:01:57;17.80;99.90
24338;DHT22;12457;50.832;4.346;2024-02-15T12:04:45;17.80;99.90
24338;DHT22;12457;50.832;4.346;2024-02-15T12:07:30;17.80;99.90
24338;DHT22;12457;50.832;4.346;2024-02-15T12:10:18;17.90;99.90
24338;DHT22;12457;50.832;4.346;2024-02-15T12:13:09;18.00;99.90
24338;DHT22;12457;50.832;4.346;2024-02-15T12:15:59;17.90;99.90
24338;DHT22;12457;50.832;4.346;2024-02-15T12:18:44;17.90;99.90
24338;DHT22;12457;50.832;4.346;2024-02-15T12:21:17;17.80;99.90
24338;DHT22;12457;50.832;4.346;2024-02-15T12:23:44;17.80;99.90
24338;DHT22;12457;50.832;4.346;2024-02-15T12:26:11;17.80;99.90
24338;DHT22;12457;50.832;4.346;2024-02-15T12:28:40;17.80;99.90
24338;DHT22;12457;50.832;4.346;2024-02-15T12:31:09;17.90;99.90
24338;DHT22;12457;50.832;4.346;2024-02-15T12:33:35;17.80;99.90
24338;DHT22;12457;50.832;4.346;2024-02-15T12:36:06;17.80;99.90
24338;DHT22;12457;50.832;4.346;2024-02-15T12:38:32;18.00;99.90
24338;DHT22;12457;50.832;4.346;2024-02-15T12:40:59;18.10;99.90
24338;DHT22;12457;50.832;4.346;2024-02-15T12:43:28;18.20;99.90
24338;DHT22;12457;50.832;4.346;2024-02-15T12:45:53;18.30;99.90
24338;DHT22;12457;50.832;4.346;2024-02-15T12:48:22;18.40;99.90
24338;DHT22;12457;50.832;4.346;2024-02-15T12:50:48;18.50;99.90
24338;DHT22;12457;50.832;4.346;2024-02-15T12:53:21;18.60;99.90
24338;DHT22;12457;50.832;4.346;2024-02-15T12:55:53;18.70;99.90
24338;DHT22;12457;50.832;4.346;2024-02-15T12:58:20;18.80;99.90
24338;DHT22;12457;50.832;4.346;2024-02-15T13:00:46;18.90;99.90
24338;DHT22;12457;50.832;4.346;2024-02-15T13:03:12;18.80;99.90
24338;DHT22;12457;50.832;4.346;2024-02-15T13:05:40;18.60;99.90
24338;DHT22;12457;50.832;4.346;2024-02-15T13:08:06;18.40;99.90
24338;DHT22;12457;50.832;4.346;2024-02-15T13:10:39;18.50;99.90
24338;DHT22;12457;50.832;4.346;2024-02-15T13:13:05;18.50;99.90
24338;DHT22;12457;50.832;4.346;2024-02-15T13:15:31;18.50;99.90
24338;DHT22;12457;50.832;4.346;2024-02-15T13:18:00;18.50;99.90
24338;DHT22;12457;50.832;4.346;2024-02-15T13:20:27;18.60;99.90
24338;DHT22;12457;50.832;4.346;2024-02-15T13:23:00;18.50;99.90
24338;DHT22;12457;50.832;4.346;2024-02-15T13:25:29;18.60;99.90
24338;DHT22;12457;50.832;4.346;2024-02-15T13:27:55;18.60;99.90
24338;DHT22;12457;50.832;4.346;2024-02-15T13:30:23;18.80;99.90
24338;DHT22;12457;50.832;4.346;2024-02-15T13:32:53;18.90;99.90
24338;DHT22;12457;50.832;4.346;2024-02-15T13:35:20;19.00;99.90
24338;DHT22;12457;50.832;4.346;2024-02-15T13:37:50;18.90;99.90
24338;DHT22;12457;50.832;4.346;2024-02-15T13:40:18;19.00;99.90
24338;DHT22;12457;50.832;4.346;2024-02-15T13:42:47;19.00;99.90
24338;DHT22;12457;50.832;4.346;2024-02-15T13:45:24;18.90;99.90
24338;DHT22;12457;50.832;4.346;2024-02-15T13:47:57;18.90;99.90
24338;DHT22;12457;50.832;4.346;2024-02-15T13:50:23;18.90;99.90
24338;DHT22;12457;50.832;4.346;2024-02-15T13:52:49;18.70;99.90
24338;DHT22;12457;50.832;4.346;2024-02-15T13:55:17;18.60;99.90
24338;DHT22;12457;50.832;4.346;2024-02-15T13:57:47;18.50;99.90
24338;DHT22;12457;50.832;4.346;2024-02-15T14:00:17;18.20;99.90
24338;DHT22;12457;50.832;4.346;2024-02-15T14:02:55;18.00;99.90
24338;DHT22;12457;50.832;4.346;2024-02-15T14:05:25;18.00;99.90
24338;DHT22;12457;50.832;4.346;2024-02-15T14:08:04;18.00;99.90
24338;DHT22;12457;50.832;4.346;2024-02-15T14:10:34;18.00;99.90
24338;DHT22;12457;50.832;4.346;2024-02-15T14:13:03;18.00;99.90
24338;DHT22;12457;50.832;4.346;2024-02-15T14:15:37;18.00;99.90
24338;DHT22;12457;50.832;4.346;2024-02-15T14:18:10;17.90;99.90
24338;DHT22;12457;50.832;4.346;2024-02-15T14:20:41;18.00;99.90
24338;DHT22;12457;50.832;4.346;2024-02-15T14:23:12;18.10;99.90
24338;DHT22;12457;50.832;4.346;2024-02-15T14:25:41;18.20;99.90
24338;DHT22;12457;50.832;4.346;2024-02-15T14:28:07;18.10;99.90
24338;DHT22;12457;50.832;4.346;2024-02-15T14:30:36;18.10;99.90
24338;DHT22;12457;50.832;4.346;2024-02-15T14:33:21;18.00;99.90
24338;DHT22;12457;50.832;4.346;2024-02-15T14:35:48;17.90;99.90
24338;DHT22;12457;50.832;4.346;2024-02-15T14:38:15;17.90;99.90
24338;DHT22;12457;50.832;4.346;2024-02-15T14:40:45;18.00;99.90
24338;DHT22;12457;50.832;4.346;2024-02-15T14:43:16;18.10;99.90
24338;DHT22;12457;50.832;4.346;2024-02-15T14:45:42;18.10;99.90
24338;DHT22;12457;50.832;4.346;2024-02-15T14:48:08;18.30;99.90
24338;DHT22;12457;50.832;4.346;2024-02-15T14:50:37;18.30;99.90
24338;DHT22;12457;50.832;4.346;2024-02-15T14:53:06;18.30;99.90
24338;DHT22;12457;50.832;4.346;2024-02-15T14:55:35;18.20;99.90
24338;DHT22;12457;50.832;4.346;2024-02-15T14:58:05;18.10;99.90
24338;DHT22;12457;50.832;4.346;2024-02-15T15:00:33;18.10;99.90
24338;DHT22;12457;50.832;4.346;2024-02-15T15:02:59;17.80;99.90
24338;DHT22;12457;50.832;4.346;2024-02-15T15:05:26;17.80;99.90
24338;DHT22;12457;50.832;4.346;2024-02-15T15:08:10;17.80;99.90
24338;DHT22;12457;50.832;4.346;2024-02-15T15:10:56;17.90;99.90
24338;DHT22;12457;50.832;4.346;2024-02-15T15:13:40;17.80;99.90
24338;DHT22;12457;50.832;4.346;2024-02-15T15:16:07;17.90;99.90
24338;DHT22;12457;50.832;4.346;2024-02-15T15:18:36;17.90;99.90
24338;DHT22;12457;50.832;4.346;2024-02-15T15:21:01;17.90;99.90
24338;DHT22;12457;50.832;4.346;2024-02-15T15:23:28;17.80;99.90
24338;DHT22;12457;50.832;4.346;2024-02-15T15:26:00;17.80;99.90
24338;DHT22;12457;50.832;4.346;2024-02-15T15:28:27;17.70;99.90
24338;DHT22;12457;50.832;4.346;2024-02-15T15:30:53;17.70;99.90
24338;DHT22;12457;50.832;4.346;2024-02-15T15:33:41;17.80;99.90
24338;DHT22;12457;50.832;4.346;2024-02-15T15:36:07;17.80;99.90
24338;DHT22;12457;50.832;4.346;2024-02-15T15:38:33;17.80;99.90
24338;DHT22;12457;50.832;4.346;2024-02-15T15:41:02;17.70;99.90
24338;DHT22;12457;50.832;4.346;2024-02-15T15:43:30;17.60;99.90
24338;DHT22;12457;50.832;4.346;2024-02-15T15:45:56;17.40;99.90
24338;DHT22;12457;50.832;4.346;2024-02-15T15:48:23;17.30;99.90
24338;DHT22;12457;50.832;4.346;2024-02-15T15:50:51;17.30;99.90
24338;DHT22;12457;50.832;4.346;2024-02-15T15:53:16;17.20;99.90
24338;DHT22;12457;50.832;4.346;2024-02-15T15:55:42;17.20;99.90